< < Back
Terminal Aerodrome Forecast


Current Version              Previous Versions:   1  2  3  4  5  6  7  8  9  

Terminal Aerodrome Forecast

789
FTUS42 KJAX 052208 AAA
TAFGNV
TAF AMD
KGNV 052208Z 0522/0618 04008KT P6SM SKC
     FM060000 01006KT P6SM SKC
     FM061200 36009KT P6SM SCT050 BKN100
     FM061500 02009KT P6SM SCT025 OVC050=

Latest METAR

653
SAUS70 KWBC 052200 RRL
MTRGNV
METAR KGNV 052153Z 05008KT 10SM CLR 13/M01 A3028 RMK AO2 SLP253
T01331006


USA.gov is the U.S. government's official web portal to all federal, state and local government web resources and services.